Time;durP1;ratioP1;P1;durP2;ratioP2;P2;SDS_P1;SDS_P2;PMS_P1;PMS_P2;Temp;Humidity;BMP_temperature;BMP_pressure;BME280_temperature;BME280_humidity;BME280_pressure;Samples;Min_cycle;Max_cycle;Signal;HPM_P1;HPM_P2
2023/04/27 00:02:08;;;;;;;;;6.00;3.50;;;;;22.45;30.87;101616.09;5077054;28;45399;-74
2023/04/27 00:04:33;;;;;;;;;3.25;2.00;;;;;22.45;30.87;101621.41;5077196;27;45233;-73
2023/04/27 00:06:58;;;;;;;;;4.00;3.00;;;;;22.45;30.81;101609.97;5077077;27;45267;-73
2023/04/27 00:09:24;;;;;;;;;3.00;3.00;;;;;22.33;30.64;101582.94;5076739;27;46112;-74
2023/04/27 00:11:50;;;;;;;;;2.75;2.75;;;;;22.43;30.97;101598.69;5076994;28;45336;-74
2023/04/27 00:14:15;;;;;;;;;3.25;3.00;;;;;22.18;31.22;101568.50;5058728;28;45337;-74
2023/04/27 00:16:41;;;;;;;;;3.75;2.50;;;;;22.45;30.65;101600.19;5076933;28;45355;-74
2023/04/27 00:19:07;;;;;;;;;4.25;3.75;;;;;22.46;30.72;101606.28;5076642;27;46422;-74
2023/04/27 00:21:33;;;;;;;;;4.50;4.00;;;;;22.46;30.78;101606.28;5076789;27;45226;-73
2023/04/27 00:23:58;;;;;;;;;3.00;3.00;;;;;22.44;31.19;101603.00;5076614;27;45232;-74
2023/04/27 00:26:23;;;;;;;;;3.50;2.00;;;;;22.46;31.21;101606.28;5076209;27;45213;-74
2023/04/27 00:28:49;;;;;;;;;7.00;4.00;;;;;22.46;31.31;101598.34;5076652;28;47294;-74
2023/04/27 00:31:14;;;;;;;;;2.75;2.75;;;;;22.43;30.74;101591.53;5076685;27;45392;-74
2023/04/27 00:33:39;;;;;;;;;3.75;3.00;;;;;22.43;31.27;101591.53;5076568;27;45419;-74
2023/04/27 00:36:05;;;;;;;;;3.25;3.00;;;;;22.43;31.26;101583.59;5076681;28;45525;-74
2023/04/27 00:38:31;;;;;;;;;3.75;3.00;;;;;22.32;31.27;101578.63;5075892;27;46113;-74
2023/04/27 00:41:04;;;;;;;;;3.00;3.00;;;;;22.34;31.07;101568.69;5076357;28;45397;-74
2023/04/27 00:43:29;;;;;;;;;3.00;3.00;;;;;22.41;30.99;101582.94;5076695;27;45429;-74
2023/04/27 00:45:55;;;;;;;;;4.25;3.25;;;;;22.34;31.44;101572.16;5076402;27;45378;-74
2023/04/27 00:48:21;;;;;;;;;3.00;3.00;;;;;22.44;30.84;101582.63;5058326;28;46310;-74
2023/04/27 00:50:46;;;;;;;;;2.00;2.00;;;;;22.35;31.16;101573.81;5076388;28;45392;-74
2023/04/27 00:53:13;;;;;;;;;4.00;4.00;;;;;22.44;31.03;101581.78;5076137;28;45743;-74
2023/04/27 00:55:38;;;;;;;;;2.00;2.00;;;;;22.31;30.92;101567.19;5076432;28;45380;-74
2023/04/27 00:58:03;;;;;;;;;3.00;3.00;;;;;22.40;31.29;101590.06;5076019;28;54176;-74
2023/04/27 01:00:29;;;;;;;;;3.00;3.00;;;;;22.43;30.88;101583.59;5076229;27;45305;-74
2023/04/27 01:02:55;;;;;;;;;3.00;2.00;;;;;22.37;30.84;101578.97;5076264;28;45336;-74
2023/04/27 01:05:20;;;;;;;;;3.75;2.75;;;;;22.43;30.69;101578.28;5076267;28;45222;-74
2023/04/27 01:07:46;;;;;;;;;2.25;1.75;;;;;22.43;31.11;101578.28;5075799;27;47084;-74
2023/04/27 01:10:11;;;;;;;;;3.50;3.50;;;;;22.43;31.18;101574.84;5075958;28;45263;-74
2023/04/27 01:12:36;;;;;;;;;2.75;2.75;;;;;22.43;30.81;101569.53;5057993;28;45266;-74
2023/04/27 01:15:02;;;;;;;;;2.25;2.25;;;;;22.34;30.77;101556.25;5076156;27;45389;-74
2023/04/27 01:17:27;;;;;;;;;2.75;2.00;;;;;22.42;30.88;101562.56;5075804;28;46066;-74
2023/04/27 01:19:54;;;;;;;;;3.00;3.00;;;;;22.41;31.08;101564.38;5076032;28;45291;-74
2023/04/27 01:22:20;;;;;;;;;2.00;2.00;;;;;22.13;30.74;101515.16;5075798;28;45416;-74
2023/04/27 01:24:46;;;;;;;;;2.75;2.00;;;;;22.39;31.13;101553.13;5057561;27;45634;-74
2023/04/27 01:27:12;;;;;;;;;4.00;3.50;;;;;22.41;30.84;101548.47;5075711;27;45360;-74
2023/04/27 01:29:37;;;;;;;;;2.25;2.00;;;;;22.35;30.58;101536.69;5075787;28;45460;-74
2023/04/27 01:32:03;;;;;;;;;2.50;2.00;;;;;22.41;31.03;101548.47;5075973;28;45337;-73
2023/04/27 01:34:28;;;;;;;;;2.00;2.00;;;;;22.25;30.84;101523.59;5075874;27;45518;-74
2023/04/27 01:36:54;;;;;;;;;3.00;3.00;;;;;22.41;30.81;101559.06;5075249;28;46287;-74
2023/04/27 01:39:19;;;;;;;;;4.00;3.75;;;;;22.16;30.92;101520.16;5078614;27;45437;-74
2023/04/27 01:41:44;;;;;;;;;2.25;2.25;;;;;22.35;30.88;101541.19;5079566;28;45466;-73
2023/04/27 01:44:10;;;;;;;;;3.00;3.00;;;;;22.42;31.09;101552.78;5079454;27;45373;-74
2023/04/27 01:46:36;;;;;;;;;6.00;2.75;;;;;22.42;31.09;101547.47;5079150;27;46429;-74
2023/04/27 01:49:01;;;;;;;;;3.25;2.00;;;;;22.40;31.18;101541.53;5079149;28;45426;-74
2023/04/27 01:51:26;;;;;;;;;4.00;4.00;;;;;22.34;30.83;101535.06;5079091;27;45381;-74
2023/04/27 01:53:52;;;;;;;;;3.25;2.00;;;;;22.33;30.66;101529.94;5079196;27;45409;-75
2023/04/27 01:56:17;;;;;;;;;3.00;3.00;;;;;22.36;31.05;101537.53;5078980;27;45911;-73
2023/04/27 01:58:43;;;;;;;;;2.00;2.00;;;;;22.37;30.62;101539.19;5079238;28;45313;-75
2023/04/27 02:01:08;;;;;;;;;2.00;2.00;;;;;22.44;30.57;101542.00;5079186;27;45247;-75
2023/04/27 02:03:33;;;;;;;;;3.00;1.75;;;;;22.44;31.08;101556.09;5079025;28;45527;-75
2023/04/27 02:05:59;;;;;;;;;3.75;2.75;;;;;22.25;30.84;101520.16;5078439;28;46920;-75
2023/04/27 02:08:25;;;;;;;;;2.00;2.00;;;;;22.40;30.74;101533.56;5078908;27;45278;-75
2023/04/27 02:10:50;;;;;;;;;3.00;2.00;;;;;22.41;31.06;101545.81;5079055;28;45696;-75
2023/04/27 02:13:15;;;;;;;;;2.50;2.50;;;;;22.35;31.04;101538.53;5078979;28;45385;-75
2023/04/27 02:15:41;;;;;;;;;2.50;2.50;;;;;22.40;30.71;101541.53;5078547;28;47046;-76
2023/04/27 02:18:06;;;;;;;;;2.25;1.25;;;;;22.45;30.84;101548.97;5078836;28;45371;-75
2023/04/27 02:20:32;;;;;;;;;2.75;2.75;;;;;22.36;30.67;101542.84;5078675;28;45368;-75
2023/04/27 02:22:57;;;;;;;;;4.25;3.25;;;;;22.38;30.39;101549.63;5078839;28;45309;-75
2023/04/27 02:25:23;;;;;;;;;3.00;2.75;;;;;22.46;30.59;101547.97;5078650;27;47568;-75
2023/04/27 02:27:49;;;;;;;;;3.50;3.50;;;;;22.38;31.07;101530.22;5078409;27;45360;-75
2023/04/27 02:30:14;;;;;;;;;2.50;2.50;;;;;22.46;31.30;101546.16;5078655;27;45335;-75
2023/04/27 02:32:40;;;;;;;;;2.50;2.50;;;;;22.30;31.05;101528.44;5078769;28;45372;-75
2023/04/27 02:35:07;;;;;;;;;2.25;2.25;;;;;22.42;31.24;101550.13;5078060;28;45288;-75
2023/04/27 02:37:33;;;;;;;;;3.00;3.00;;;;;22.43;30.87;101546.47;5078371;28;45291;-75
2023/04/27 02:39:59;;;;;;;;;3.75;2.50;;;;;22.45;30.55;101549.81;5078478;28;45685;-75
2023/04/27 02:42:24;;;;;;;;;2.50;2.50;;;;;22.33;30.68;101536.03;5078347;28;45381;-74
2023/04/27 02:44:50;;;;;;;;;3.00;2.00;;;;;22.40;30.78;101544.19;5078250;28;45457;-75
2023/04/27 02:47:15;;;;;;;;;0.00;0.00;;;;;22.46;30.70;101558.56;5078454;27;45405;-75
2023/04/27 02:49:41;;;;;;;;;4.00;2.00;;;;;22.47;30.71;101557.59;5077960;27;45350;-75
2023/04/27 02:52:06;;;;;;;;;3.25;3.00;;;;;22.47;31.19;101557.59;5078351;28;45401;-73
2023/04/27 02:54:32;;;;;;;;;0.00;0.00;;;;;22.47;31.05;101566.38;5077927;27;46514;-75
2023/04/27 02:56:58;;;;;;;;;2.50;2.50;;;;;22.46;31.09;101571.81;5078256;28;45450;-75
2023/04/27 02:59:23;;;;;;;;;1.50;1.50;;;;;22.47;30.75;101570.84;5078208;27;45476;-75
2023/04/27 03:01:48;;;;;;;;;2.25;2.25;;;;;22.45;31.23;101565.72;5078302;28;45332;-75
2023/04/27 03:04:15;;;;;;;;;3.50;2.50;;;;;22.44;30.80;101571.16;5077504;27;52829;-75
2023/04/27 03:06:40;;;;;;;;;3.00;3.00;;;;;22.35;30.70;101549.94;5077848;27;45536;-75
2023/04/27 03:09:06;;;;;;;;;2.50;2.50;;;;;22.35;30.65;101549.16;5078016;27;45533;-76
2023/04/27 03:11:31;;;;;;;;;2.75;2.75;;;;;22.38;31.39;101557.59;5078019;27;45471;-75
2023/04/27 03:13:56;;;;;;;;;1.50;1.50;;;;;22.44;31.13;101566.69;5077749;28;47137;-75
2023/04/27 03:16:22;;;;;;;;;2.25;1.25;;;;;22.44;31.00;101561.41;5077879;27;45399;-75
2023/04/27 03:18:47;;;;;;;;;1.75;1.75;;;;;22.42;31.17;101552.78;5059415;28;45277;-75
2023/04/27 03:21:13;;;;;;;;;3.25;2.75;;;;;22.44;30.83;101558.75;5076313;28;51165;-75
2023/04/27 03:23:39;;;;;;;;;2.00;2.00;;;;;22.15;31.17;101509.69;5077771;27;46090;-75
2023/04/27 03:26:13;;;;;;;;;3.00;2.00;;;;;22.44;30.60;101557.91;5077755;28;45534;-75
2023/04/27 03:28:39;;;;;;;;;3.00;1.75;;;;;22.43;31.34;101557.06;5077624;27;45316;-75
2023/04/27 03:31:11;;;;;;;;;3.75;3.00;;;;;22.35;30.90;101547.31;5077333;28;45469;-75
2023/04/27 03:33:37;;;;;;;;;4.50;3.00;;;;;22.40;30.89;101560.09;5077269;28;47294;-75
2023/04/27 03:36:04;;;;;;;;;2.00;2.00;;;;;22.43;30.81;101564.22;5077516;27;45380;-75
2023/04/27 03:38:30;;;;;;;;;4.25;3.00;;;;;22.42;31.20;101560.75;5059159;28;45485;-75
2023/04/27 03:40:56;;;;;;;;;3.75;3.00;;;;;22.40;30.67;101555.59;5077394;27;45426;-76
2023/04/27 03:43:22;;;;;;;;;1.25;1.25;;;;;22.42;31.17;101566.03;5077504;28;46295;-75
2023/04/27 03:45:47;;;;;;;;;4.25;2.25;;;;;22.33;31.22;101545.84;5077152;27;45433;-75
2023/04/27 03:48:15;;;;;;;;;2.00;2.00;;;;;22.32;30.77;101545.00;5077672;28;45266;-75
2023/04/27 03:50:41;;;;;;;;;2.75;2.00;;;;;22.41;30.59;101551.13;5077356;28;45284;-75
2023/04/27 03:53:06;;;;;;;;;2.50;2.00;;;;;22.31;30.99;101535.38;5077140;28;46180;-75
2023/04/27 03:55:32;;;;;;;;;2.00;2.00;;;;;22.39;30.78;101547.81;5077147;27;45392;-75
2023/04/27 03:57:57;;;;;;;;;2.50;2.00;;;;;22.44;30.86;101555.25;5077377;27;45331;-75
2023/04/27 04:00:23;;;;;;;;;3.00;3.00;;;;;22.33;30.85;101538.69;5076388;28;45316;-75
2023/04/27 04:02:48;;;;;;;;;0.50;0.50;;;;;22.45;30.66;101564.88;5077170;28;46148;-75
2023/04/27 04:05:14;;;;;;;;;2.00;2.00;;;;;22.40;31.02;101547.63;5077043;27;45335;-75
2023/04/27 04:07:40;;;;;;;;;3.00;2.00;;;;;22.41;31.10;101545.81;5077258;28;45367;-75
2023/04/27 04:10:06;;;;;;;;;2.00;2.00;;;;;22.45;31.13;101555.13;5077101;28;45551;-75
2023/04/27 04:12:32;;;;;;;;;1.25;1.25;;;;;22.43;31.20;101541.16;5076829;28;46187;-75
2023/04/27 04:14:57;;;;;;;;;3.00;3.00;;;;;22.45;30.78;101548.97;5076341;28;45479;-75
2023/04/27 04:17:23;;;;;;;;;2.25;2.25;;;;;22.45;30.75;101539.19;5077204;27;45430;-75
2023/04/27 04:19:48;;;;;;;;;2.00;2.00;;;;;22.34;30.49;101523.63;5077077;28;45381;-75
2023/04/27 04:22:13;;;;;;;;;2.00;2.00;;;;;22.44;31.19;101545.50;5076811;28;46144;-75
2023/04/27 04:24:39;;;;;;;;;3.50;3.00;;;;;22.44;31.02;101540.19;5076718;27;45573;-75
2023/04/27 04:27:04;;;;;;;;;3.25;2.00;;;;;22.41;31.10;101529.91;5076884;27;45330;-75
2023/04/27 04:29:30;;;;;;;;;2.00;2.00;;;;;22.43;30.58;101537.72;5076458;27;45486;-75
2023/04/27 04:31:55;;;;;;;;;2.25;2.25;;;;;22.36;30.55;101529.56;5076637;28;46174;-75
2023/04/27 04:34:21;;;;;;;;;3.00;3.00;;;;;22.29;30.81;101517.00;5076603;28;45470;-75
2023/04/27 04:36:50;;;;;;;;;2.25;2.00;;;;;22.37;30.94;101525.94;5076863;28;45280;-75
2023/04/27 04:39:16;;;;;;;;;1.67;1.67;;;;;22.35;31.08;101520.78;5076542;27;45376;-75
2023/04/27 04:41:41;;;;;;;;;2.75;2.75;;;;;22.43;30.62;101537.72;5076251;28;47244;-75
2023/04/27 04:44:07;;;;;;;;;1.00;1.00;;;;;22.42;31.19;101539.53;5076129;28;45395;-75
2023/04/27 04:46:32;;;;;;;;;3.00;1.25;;;;;22.40;30.68;101539.69;5076451;28;45396;-75
2023/04/27 04:48:57;;;;;;;;;2.50;1.00;;;;;22.43;30.86;101535.06;5076599;28;45343;-75
2023/04/27 04:51:23;;;;;;;;;1.50;1.00;;;;;22.09;30.80;101483.88;5076402;28;47250;-75
2023/04/27 04:53:48;;;;;;;;;1.33;1.33;;;;;22.38;31.16;101528.41;5076328;27;45431;-75
2023/04/27 04:56:15;;;;;;;;;3.25;3.25;;;;;22.38;30.79;101524.94;5076345;28;45285;-76
2023/04/27 04:58:41;;;;;;;;;3.00;3.00;;;;;22.30;31.26;101507.22;5076030;28;45457;-76
2023/04/27 05:01:06;;;;;;;;;1.67;1.67;;;;;22.40;31.05;101518.47;5076033;28;46172;-75
2023/04/27 05:03:31;;;;;;;;;2.25;2.25;;;;;22.40;30.85;101523.78;5074678;27;50846;-75
2023/04/27 05:05:57;;;;;;;;;5.00;2.00;;;;;22.32;31.01;101507.88;5076198;28;45272;-75
2023/04/27 05:08:22;;;;;;;;;1.33;1.33;;;;;22.38;31.16;101524.94;5076158;28;45349;-75
2023/04/27 05:10:52;;;;;;;;;2.75;2.75;;;;;22.33;31.15;101517.47;5076132;28;46292;-75
2023/04/27 05:13:18;;;;;;;;;2.50;2.50;;;;;22.29;30.68;101506.41;5074533;28;45454;-75
2023/04/27 05:15:43;;;;;;;;;3.25;3.25;;;;;22.36;30.57;101514.50;5076034;28;45479;-75
2023/04/27 05:18:09;;;;;;;;;2.50;1.50;;;;;22.29;30.49;101502.91;5076021;28;45353;-75
2023/04/27 05:20:34;;;;;;;;;2.25;2.00;;;;;22.38;30.98;101509.03;5075919;28;46307;-75
2023/04/27 05:23:01;;;;;;;;;1.25;1.25;;;;;22.29;30.58;101501.09;5075838;28;45495;-75
2023/04/27 05:25:29;;;;;;;;;5.50;2.00;;;;;22.28;31.08;101506.53;5075816;28;45348;-75
2023/04/27 05:27:54;;;;;;;;;3.00;3.00;;;;;22.36;30.96;101517.16;5075375;27;45416;-75
2023/04/27 05:30:20;;;;;;;;;4.00;2.25;;;;;22.33;31.15;101521.97;5075696;28;45956;-75
2023/04/27 05:32:46;;;;;;;;;2.25;2.25;;;;;22.44;31.25;101526.09;5075554;28;45413;-75
2023/04/27 05:35:11;;;;;;;;;2.00;2.00;;;;;22.43;31.22;101527.91;5075875;28;45343;-75
2023/04/27 05:37:36;;;;;;;;;2.50;1.75;;;;;22.40;30.70;101522.97;5075846;27;45484;-75
2023/04/27 05:40:04;;;;;;;;;3.00;2.00;;;;;22.34;30.69;101513.00;5057133;28;51115;-74
2023/04/27 05:42:29;;;;;;;;;4.00;2.00;;;;;22.42;30.72;101520.13;5075352;28;45320;-76
2023/04/27 05:44:55;;;;;;;;;2.00;2.00;;;;;22.40;30.77;101525.63;5075748;28;45301;-75
2023/04/27 05:47:20;;;;;;;;;3.25;2.25;;;;;22.43;30.66;101532.41;5075951;28;45246;-75
2023/04/27 05:49:50;;;;;;;;;2.00;2.00;;;;;22.40;30.72;101526.41;5075563;28;47282;-75
2023/04/27 05:52:15;;;;;;;;;3.00;3.00;;;;;22.35;30.73;101512.84;5075591;28;45489;-75
2023/04/27 05:54:48;;;;;;;;;3.00;3.00;;;;;22.37;31.20;101513.53;5075509;28;45688;-75
2023/04/27 05:57:13;;;;;;;;;2.00;2.00;;;;;22.32;30.86;101507.88;5075232;28;45368;-75
2023/04/27 05:59:39;;;;;;;;;2.75;2.75;;;;;22.42;30.74;101525.44;5075301;27;46172;-75
2023/04/27 06:02:05;;;;;;;;;2.00;2.00;;;;;22.38;30.99;101527.59;5075609;28;45333;-75
2023/04/27 06:04:32;;;;;;;;;2.00;2.00;;;;;22.32;31.04;101509.72;5075536;27;45404;-75
2023/04/27 06:06:57;;;;;;;;;2.00;2.00;;;;;22.30;30.75;101520.50;5075435;28;45514;-75
2023/04/27 06:09:23;;;;;;;;;4.00;3.00;;;;;22.36;31.24;101516.31;5075184;28;46133;-75
2023/04/27 06:11:48;;;;;;;;;2.00;2.00;;;;;22.43;30.67;101535.06;5074997;28;45397;-75
2023/04/27 06:14:13;;;;;;;;;2.75;2.00;;;;;22.32;31.11;101513.19;5075369;28;45429;-75
2023/04/27 06:16:39;;;;;;;;;2.00;2.00;;;;;22.35;31.12;101512.03;5075551;28;45425;-74
2023/04/27 06:19:05;;;;;;;;;2.00;2.00;;;;;22.43;31.06;101529.75;5075088;28;46316;-75
2023/04/27 06:21:34;;;;;;;;;3.00;3.00;;;;;22.43;31.28;101519.16;5075049;28;45300;-75
2023/04/27 06:24:00;;;;;;;;;3.00;3.00;;;;;22.36;31.21;101516.31;5076306;28;45476;-75
2023/04/27 06:26:26;;;;;;;;;3.00;3.00;;;;;22.43;31.03;101527.09;5078145;27;45400;-75
2023/04/27 06:28:51;;;;;;;;;2.25;2.25;;;;;22.40;30.65;101528.25;5078555;28;45428;-74
2023/04/27 06:31:16;;;;;;;;;3.00;3.00;;;;;22.43;31.03;101529.75;5078537;27;45443;-74
2023/04/27 06:33:42;;;;;;;;;3.00;3.00;;;;;22.34;30.69;101511.19;5078569;27;45710;-74
2023/04/27 06:36:07;;;;;;;;;2.75;2.75;;;;;22.33;31.14;101509.53;5078444;27;45388;-75
2023/04/27 06:38:33;;;;;;;;;2.25;1.75;;;;;22.43;30.74;101527.91;5078237;28;45374;-74
2023/04/27 06:40:58;;;;;;;;;3.00;3.00;;;;;22.43;31.14;101527.09;5077739;27;45369;-74
2023/04/27 06:43:24;;;;;;;;;2.00;2.00;;;;;22.27;30.71;101496.94;5078354;28;45427;-73
2023/04/27 06:45:49;;;;;;;;;3.00;2.25;;;;;22.43;30.67;101517.31;5078213;27;45352;-73
2023/04/27 06:48:15;;;;;;;;;2.75;2.75;;;;;22.43;30.69;101522.59;5078077;27;46280;-73
2023/04/27 06:50:41;;;;;;;;;1.25;1.25;;;;;22.37;30.71;101507.38;5078379;27;45410;-76
2023/04/27 06:53:07;;;;;;;;;2.00;2.00;;;;;22.23;30.79;101490.31;5078376;28;45348;-75
2023/04/27 06:55:33;;;;;;;;;2.75;2.00;;;;;22.43;30.49;101519.16;5059473;28;45362;-75
2023/04/27 06:57:58;;;;;;;;;3.00;3.00;;;;;22.42;30.41;101518.31;5078097;28;47043;-75
2023/04/27 07:00:23;;;;;;;;;4.00;3.00;;;;;22.33;31.11;101506.88;5077920;28;48006;-75
2023/04/27 07:02:49;;;;;;;;;2.50;2.50;;;;;22.42;30.53;101522.78;5078309;27;45305;-75
2023/04/27 07:05:15;;;;;;;;;2.00;2.00;;;;;22.32;30.50;101507.88;5078221;28;45420;-75
2023/04/27 07:07:40;;;;;;;;;2.25;2.25;;;;;22.45;31.11;101525.09;5077896;27;46181;-74
2023/04/27 07:10:06;;;;;;;;;3.25;3.25;;;;;22.45;31.11;101533.06;5077550;28;45439;-75
2023/04/27 07:12:32;;;;;;;;;3.25;3.00;;;;;22.45;31.06;101525.94;5078082;28;45420;-75
2023/04/27 07:14:57;;;;;;;;;3.00;3.00;;;;;22.37;30.55;101516.16;5077747;28;45457;-75
2023/04/27 07:17:22;;;;;;;;;2.75;2.25;;;;;22.42;31.04;101514.84;5077815;28;47358;-75
2023/04/27 07:19:48;;;;;;;;;2.75;2.75;;;;;22.46;30.62;101521.44;5077659;27;45359;-75
2023/04/27 07:22:14;;;;;;;;;3.00;3.00;;;;;22.45;30.84;101509.19;5078030;28;45310;-74
2023/04/27 07:24:40;;;;;;;;;3.00;1.33;;;;;22.47;30.95;101517.81;5077540;28;45417;-75
2023/04/27 07:27:07;;;;;;;;;2.33;2.00;;;;;22.42;30.76;101505.06;5077229;27;46084;-75
2023/04/27 07:29:32;;;;;;;;;2.00;2.00;;;;;22.39;31.14;101494.78;5077683;28;45304;-75
2023/04/27 07:31:57;;;;;;;;;2.00;2.00;;;;;22.37;30.94;101502.91;5077512;27;45239;-73
2023/04/27 07:34:23;;;;;;;;;1.75;1.75;;;;;22.48;31.02;101522.13;5077576;27;45381;-76
2023/04/27 07:36:48;;;;;;;;;2.25;2.25;;;;;22.48;30.69;101519.47;5076355;28;47107;-75
2023/04/27 07:39:13;;;;;;;;;2.75;2.75;;;;;22.40;31.17;101501.75;5077024;28;45423;-75
2023/04/27 07:41:39;;;;;;;;;2.25;2.00;;;;;22.37;30.70;101505.56;5077633;27;45317;-75
2023/04/27 07:44:05;;;;;;;;;2.25;2.25;;;;;22.39;30.61;101505.38;5077440;27;45508;-75
2023/04/27 07:46:30;;;;;;;;;3.00;3.00;;;;;22.44;30.76;101512.84;5077280;27;45448;-75
2023/04/27 07:48:58;;;;;;;;;3.00;3.00;;;;;22.47;31.01;101510.69;5077220;27;45434;-75
2023/04/27 07:51:24;;;;;;;;;3.00;3.00;;;;;22.49;31.13;101510.50;5077526;28;45364;-75
2023/04/27 07:53:49;;;;;;;;;2.33;2.00;;;;;22.48;30.63;101504.38;5077120;27;45524;-75
2023/04/27 07:56:15;;;;;;;;;2.00;2.00;;;;;22.44;30.94;101495.13;5076976;28;45400;-75
2023/04/27 07:58:41;;;;;;;;;2.00;2.00;;;;;22.49;30.71;101495.44;5077138;27;45395;-75
2023/04/27 08:01:06;;;;;;;;;2.25;2.25;;;;;22.49;30.78;101492.78;5077371;27;45396;-75
2023/04/27 08:03:31;;;;;;;;;2.00;2.00;;;;;22.46;30.71;101494.94;5058976;28;45597;-74
2023/04/27 08:05:57;;;;;;;;;4.75;2.50;;;;;22.42;30.67;101483.84;5076989;27;49425;-74
2023/04/27 08:08:22;;;;;;;;;3.00;3.00;;;;;22.41;30.65;101492.78;5076747;28;45451;-75
2023/04/27 08:10:47;;;;;;;;;3.75;2.50;;;;;22.43;30.71;101503.25;5077190;28;45287;-74
2023/04/27 08:13:12;;;;;;;;;2.00;2.00;;;;;22.50;31.22;101502.41;5076937;27;49494;-75
2023/04/27 08:15:38;;;;;;;;;3.50;3.50;;;;;22.31;31.23;101481.53;5076731;28;45590;-75
2023/04/27 08:18:03;;;;;;;;;3.00;2.25;;;;;22.54;30.82;101510.84;5075602;28;45449;-75
2023/04/27 08:20:28;;;;;;;;;2.25;2.25;;;;;22.55;31.08;101499.25;5077102;27;45876;-75
2023/04/27 08:22:54;;;;;;;;;2.50;2.50;;;;;22.53;31.24;101488.00;5076540;28;45686;-75
2023/04/27 08:25:20;;;;;;;;;2.00;2.00;;;;;22.55;30.62;101486.00;5076554;27;46217;-75
2023/04/27 08:27:45;;;;;;;;;4.75;3.50;;;;;22.51;31.10;101488.13;5076732;27;45734;-75
2023/04/27 08:30:10;;;;;;;;;2.25;2.25;;;;;22.60;30.64;101481.00;5076754;27;45420;-75
2023/04/27 08:32:36;;;;;;;;;2.00;1.00;;;;;22.59;30.62;101479.34;5076731;28;45379;-74
2023/04/27 08:35:01;;;;;;;;;2.00;2.00;;;;;22.62;30.98;101486.13;5076321;28;47983;-75
2023/04/27 08:37:26;;;;;;;;;2.25;2.25;;;;;22.62;31.04;101502.88;5076315;28;45410;-75
2023/04/27 08:39:52;;;;;;;;;4.75;3.25;;;;;22.60;30.90;101477.53;5076440;27;45667;-75
2023/04/27 08:42:17;;;;;;;;;2.00;2.00;;;;;22.51;30.82;101474.03;5076619;28;45348;-75
2023/04/27 08:44:43;;;;;;;;;2.50;2.50;;;;;22.60;31.13;101480.19;5076388;28;46196;-75
2023/04/27 08:47:09;;;;;;;;;3.00;3.00;;;;;22.65;31.24;101503.53;5076271;28;45321;-75
2023/04/27 08:49:37;;;;;;;;;2.50;2.00;;;;;22.65;31.01;101477.00;5076486;28;45273;-75
2023/04/27 08:52:03;;;;;;;;;2.75;2.00;;;;;22.62;31.19;101484.31;5076182;28;45431;-75
2023/04/27 08:54:29;;;;;;;;;2.00;2.00;;;;;22.67;30.76;101488.28;5076131;27;46098;-75
2023/04/27 08:56:55;;;;;;;;;3.25;2.50;;;;;22.63;31.09;101488.63;5076060;28;45368;-75
2023/04/27 08:59:20;;;;;;;;;2.00;2.00;;;;;22.67;31.18;101481.16;5076508;27;45471;-75
2023/04/27 09:01:47;;;;;;;;;4.00;4.00;;;;;22.67;31.38;101483.81;5076387;28;45430;-75
2023/04/27 09:04:13;;;;;;;;;2.25;2.25;;;;;22.68;31.22;101488.13;5076044;28;47167;-75
2023/04/27 09:06:39;;;;;;;;;2.00;2.00;;;;;22.65;31.16;101480.50;5075779;28;45431;-75
2023/04/27 09:09:06;;;;;;;;;3.00;2.50;;;;;22.69;31.13;101479.16;5076133;28;45417;-75
2023/04/27 09:11:34;;;;;;;;;2.00;2.00;;;;;22.58;31.17;101468.91;5076291;27;45396;-75
2023/04/27 09:14:01;;;;;;;;;2.00;2.00;;;;;22.70;31.12;101482.66;5075981;27;45293;-75
2023/04/27 09:16:28;;;;;;;;;3.50;2.00;;;;;22.70;30.72;101480.84;5075895;28;45374;-74
2023/04/27 09:18:55;;;;;;;;;5.00;4.50;;;;;22.70;31.04;101478.19;5075617;28;45292;-74
2023/04/27 09:21:25;;;;;;;;;2.00;2.00;;;;;22.70;31.14;101480.00;5076144;28;45349;-75
2023/04/27 09:23:51;;;;;;;;;2.00;2.00;;;;;22.71;31.03;101487.81;5075739;27;45404;-75
2023/04/27 09:26:25;;;;;;;;;3.00;3.00;;;;;22.65;30.70;101474.34;5075731;27;45438;-75
2023/04/27 09:28:52;;;;;;;;;3.00;2.75;;;;;22.72;30.82;101486.81;5075954;28;45392;-75
2023/04/27 09:31:18;;;;;;;;;2.25;2.00;;;;;22.72;30.71;101492.13;5075837;28;45351;-75
2023/04/27 09:33:45;;;;;;;;;1.00;1.00;;;;;22.72;30.66;101494.75;5075187;28;46074;-75
2023/04/27 09:36:10;;;;;;;;;3.75;3.00;;;;;22.71;30.60;101474.56;5075632;28;45412;-75
2023/04/27 09:38:36;;;;;;;;;2.75;2.00;;;;;22.73;31.18;101477.88;5075574;28;45207;-74
2023/04/27 09:41:02;;;;;;;;;2.25;2.25;;;;;22.76;31.13;101479.34;5075922;28;45342;-75
2023/04/27 09:43:28;;;;;;;;;4.50;4.00;;;;;22.68;31.00;101464.25;5075644;28;45978;-75
2023/04/27 09:45:55;;;;;;;;;2.00;2.00;;;;;22.76;31.03;101465.25;5075579;28;45512;-75
2023/04/27 09:48:21;;;;;;;;;1.25;1.25;;;;;22.76;31.34;101458.13;5075396;28;45443;-75
2023/04/27 09:50:49;;;;;;;;;2.25;2.25;;;;;22.76;30.74;101444.88;5075565;28;45396;-75
2023/04/27 09:53:18;;;;;;;;;3.00;3.00;;;;;22.67;31.36;101432.56;5075690;28;45359;-75
2023/04/27 09:55:57;;;;;;;;;3.25;2.00;;;;;22.77;30.82;101443.03;5075373;28;45449;-75
2023/04/27 09:58:50;;;;;;;;;2.75;2.75;;;;;22.76;31.43;101458.13;5075573;27;45479;-75
2023/04/27 10:01:24;;;;;;;;;3.25;3.25;;;;;22.77;30.86;101438.53;5079204;28;45317;-75
2023/04/27 10:04:40;;;;;;;;;1.67;1.67;;;;;22.74;30.87;101429.09;5078608;27;47157;-74
2023/04/27 10:07:11;;;;;;;;;2.00;2.00;;;;;22.74;31.51;101438.91;4996418;28;45429;-75
2023/04/27 10:09:41;;;;;;;;;3.00;2.50;;;;;22.78;31.02;101444.69;4996640;28;45311;-75
2023/04/27 10:12:17;;;;;;;;;1.75;1.75;;;;;22.78;31.26;101437.56;4996406;28;45398;-75
2023/04/27 10:14:54;;;;;;;;;2.00;2.00;;;;;22.48;31.31;101389.56;4996360;28;45486;-75
2023/04/27 10:17:31;;;;;;;;;2.00;2.00;;;;;22.79;31.27;101447.19;4995989;28;45450;-75
2023/04/27 10:19:59;;;;;;;;;2.75;1.50;;;;;22.71;31.60;101434.78;4996439;28;45383;-75
2023/04/27 10:22:40;;;;;;;;;2.50;2.50;;;;;22.70;31.49;101426.97;4979957;28;45636;-76
2023/04/27 10:25:39;;;;;;;;;2.25;2.25;;;;;22.80;31.53;101432.06;4996028;28;47129;-75
2023/04/27 10:28:06;;;;;;;;;2.25;1.50;;;;;22.80;31.27;101410.84;4996028;28;45804;-75
2023/04/27 10:30:36;;;;;;;;;3.00;3.00;;;;;22.79;31.47;101412.69;4996220;28;45410;-75
2023/04/27 10:33:08;;;;;;;;;1.67;1.67;;;;;22.78;31.49;101416.34;4995725;28;45280;-75
2023/04/27 10:35:34;;;;;;;;;3.00;2.00;;;;;22.80;31.67;101414.31;4995826;28;46171;-75
2023/04/27 10:38:16;;;;;;;;;4.25;1.25;;;;;22.80;31.11;101401.06;5035722;28;45439;-75
2023/04/27 10:40:44;;;;;;;;;1.25;0.25;;;;;22.79;31.60;101385.34;5058264;28;45413;-75
2023/04/27 10:43:15;;;;;;;;;1.00;1.00;;;;;22.81;31.27;101376.19;5058181;28;45479;-75
2023/04/27 10:45:42;;;;;;;;;3.75;2.75;;;;;22.81;31.81;101368.25;5057933;28;47170;-75
2023/04/27 10:48:08;;;;;;;;;3.00;3.00;;;;;22.70;31.57;101353.53;5057823;28;45317;-75
2023/04/27 10:50:34;;;;;;;;;2.67;2.67;;;;;22.81;31.63;101364.75;5058029;28;45401;-75
2023/04/27 10:53:02;;;;;;;;;3.00;2.50;;;;;22.74;31.52;101354.81;5058016;28;45312;-75
2023/04/27 10:55:28;;;;;;;;;2.00;2.00;;;;;22.80;31.08;101366.56;5057732;28;45589;-75
2023/04/27 10:57:55;;;;;;;;;2.00;2.00;;;;;22.82;31.29;101374.38;5057734;28;45276;-76
2023/04/27 11:00:30;;;;;;;;;3.00;2.00;;;;;22.82;31.52;101372.53;5057893;28;45430;-75
2023/04/27 11:03:09;;;;;;;;;2.25;2.25;;;;;22.78;31.47;101360.63;5057753;28;45424;-75
2023/04/27 11:05:34;;;;;;;;;4.75;3.00;;;;;22.82;31.59;101364.56;5057424;28;46250;-75
2023/04/27 11:08:12;;;;;;;;;1.00;1.00;;;;;22.74;31.94;101351.38;5057650;28;45419;-75
2023/04/27 11:10:43;;;;;;;;;2.75;2.75;;;;;22.74;31.56;101338.09;5057630;28;45379;-75
2023/04/27 11:13:11;;;;;;;;;2.25;2.25;;;;;22.84;31.42;101351.16;5057684;28;45360;-75
2023/04/27 11:15:45;;;;;;;;;1.25;1.25;;;;;22.84;31.30;101344.03;5056928;28;47153;-75
2023/04/27 11:18:11;;;;;;;;;4.00;2.25;;;;;22.71;31.67;101320.72;5057632;28;45266;-75
2023/04/27 11:20:36;;;;;;;;;3.00;3.00;;;;;22.83;31.23;101331.75;5057571;28;45214;-75
2023/04/27 11:23:01;;;;;;;;;3.25;2.00;;;;;22.56;31.22;101290.59;5057560;28;45397;-75